Time;durP1;ratioP1;P1;durP2;ratioP2;P2;SDS_P1;SDS_P2;PMS_P1;PMS_P2;Temp;Humidity;BMP_temperature;BMP_pressure;BME280_temperature;BME280_humidity;BME280_pressure;Samples;Min_cycle;Max_cycle;Signal;HPM_P1;HPM_P2
2023/05/15 00:00:09;;;;;;;345.70;146.57;;;;;;;13.32;100.00;99800.88;337726;29;1447;-74
2023/05/15 00:00:20;;;;;;;345.80;146.68;;;;;;;13.33;100.00;99805.19;339182;29;1472;-74
2023/05/15 00:00:30;;;;;;;345.53;148.23;;;;;;;13.32;100.00;99811.38;339363;29;1597;-74
2023/05/15 00:00:43;;;;;;;347.08;150.00;;;;;;;13.32;100.00;99804.34;342801;28;2575;-74
2023/05/15 00:00:53;;;;;;;350.63;149.82;;;;;;;13.33;100.00;99802.56;341298;28;1739;-74
2023/05/15 00:01:03;;;;;;;350.08;148.65;;;;;;;13.34;100.00;99806.06;339703;29;2013;-74
2023/05/15 00:01:15;;;;;;;351.57;150.13;;;;;;;13.32;100.00;99803.50;332498;29;1259;-74
2023/05/15 00:01:25;;;;;;;348.52;150.65;;;;;;;13.32;100.00;99803.50;331542;29;2134;-76
2023/05/15 00:01:35;;;;;;;348.50;149.40;;;;;;;13.32;100.00;99806.13;331974;29;1657;-75
2023/05/15 00:01:46;;;;;;;348.97;148.77;;;;;;;13.32;100.00;99808.75;334192;29;1284;-75
2023/05/15 00:01:56;;;;;;;349.05;148.52;;;;;;;13.31;100.00;99807.91;334287;29;1267;-75
2023/05/15 00:02:07;;;;;;;349.67;149.83;;;;;;;13.30;100.00;99805.34;336573;29;1519;-75
2023/05/15 00:02:17;;;;;;;350.93;149.87;;;;;;;13.30;100.00;99805.34;336339;29;2356;-75
2023/05/15 00:02:27;;;;;;;353.40;152.32;;;;;;;13.30;100.00;99805.34;333028;29;1635;-75
2023/05/15 00:02:38;;;;;;;350.93;150.93;;;;;;;13.30;100.00;99798.31;327127;29;2126;-74
2023/05/15 00:02:49;;;;;;;345.67;149.23;;;;;;;13.31;100.00;99809.69;326702;29;2374;-74
2023/05/15 00:03:01;;;;;;;343.10;146.02;;;;;;;13.30;100.00;99805.34;326837;30;1215;-75
2023/05/15 00:03:11;;;;;;;344.00;147.13;;;;;;;13.31;100.00;99801.78;326893;30;1326;-75
2023/05/15 00:03:23;;;;;;;347.75;149.32;;;;;;;13.32;100.00;99803.50;327014;30;2733;-74
2023/05/15 00:03:33;;;;;;;351.52;152.63;;;;;;;13.30;100.00;99802.72;328340;29;2849;-75
2023/05/15 00:03:44;;;;;;;350.53;152.73;;;;;;;13.32;100.00;99808.75;327948;30;867;-75
2023/05/15 00:03:54;;;;;;;349.30;151.07;;;;;;;13.32;100.00;99806.97;321099;30;1471;-75
2023/05/15 00:04:05;;;;;;;346.40;147.77;;;;;;;13.32;100.00;99806.97;322444;30;1502;-75
2023/05/15 00:04:15;;;;;;;346.97;146.93;;;;;;;13.32;100.00;99800.88;321805;30;1327;-75
2023/05/15 00:04:26;;;;;;;344.65;147.77;;;;;;;13.33;100.00;99805.19;320632;30;2217;-75
2023/05/15 00:04:36;;;;;;;344.60;146.00;;;;;;;13.33;100.00;99802.56;322632;30;2352;-75
2023/05/15 00:04:47;;;;;;;343.17;146.07;;;;;;;13.33;100.00;99805.19;324767;30;2719;-75
2023/05/15 00:04:57;;;;;;;347.60;148.53;;;;;;;13.32;100.00;99804.34;319574;30;1222;-75
2023/05/15 00:05:07;;;;;;;348.20;151.43;;;;;;;13.33;100.00;99799.94;318466;30;3147;-75
2023/05/15 00:05:18;;;;;;;348.67;151.15;;;;;;;13.32;100.00;99804.34;316484;30;3536;-75
2023/05/15 00:05:28;;;;;;;350.07;152.47;;;;;;;13.32;100.00;99801.72;322258;30;928;-75
2023/05/15 00:05:39;;;;;;;351.17;152.80;;;;;;;13.32;100.00;99809.59;316176;30;3519;-75
2023/05/15 00:05:49;;;;;;;350.67;152.43;;;;;;;13.34;100.00;99801.66;312827;31;3136;-75
2023/05/15 00:06:00;;;;;;;346.58;149.77;;;;;;;13.34;100.00;99806.91;314997;31;1279;-75
2023/05/15 00:06:10;;;;;;;344.77;149.63;;;;;;;13.30;100.00;99794.81;316506;31;1695;-75
2023/05/15 00:06:20;;;;;;;344.20;149.50;;;;;;;13.30;100.00;99800.09;314517;31;2270;-75
2023/05/15 00:06:31;;;;;;;345.70;149.63;;;;;;;13.32;100.00;99803.50;316193;31;1400;-75
2023/05/15 00:06:41;;;;;;;348.23;150.55;;;;;;;13.31;100.00;99805.28;308532;32;868;-75
2023/05/15 00:06:52;;;;;;;348.43;150.03;;;;;;;13.31;100.00;99797.38;306949;31;3446;-75
2023/05/15 00:07:02;;;;;;;348.63;151.57;;;;;;;13.32;100.00;99798.22;303757;31;3566;-75
2023/05/15 00:07:13;;;;;;;349.73;152.33;;;;;;;13.31;100.00;99796.53;306713;32;1245;-75
2023/05/15 00:07:23;;;;;;;350.33;152.60;;;;;;;13.32;100.00;99798.22;307845;31;4240;-75
2023/05/15 00:07:34;;;;;;;350.85;152.48;;;;;;;13.30;100.00;99795.69;304880;32;4845;-75
2023/05/15 00:07:45;;;;;;;347.02;148.63;;;;;;;13.30;100.00;99794.81;304500;32;1285;-75
2023/05/15 00:07:57;;;;;;;346.95;149.75;;;;;;;13.32;100.00;99790.34;304462;32;5353;-75
2023/05/15 00:08:07;;;;;;;347.25;150.75;;;;;;;13.29;100.00;99785.25;302265;32;4205;-75
2023/05/15 00:08:17;;;;;;;348.73;153.40;;;;;;;13.29;100.00;99788.72;298387;32;3569;-74
2023/05/15 00:08:28;;;;;;;351.40;152.20;;;;;;;13.29;100.00;99786.09;305553;32;4099;-75
2023/05/15 00:08:38;;;;;;;357.77;155.27;;;;;;;13.29;100.00;99786.09;302542;32;3270;-75
2023/05/15 00:08:49;;;;;;;356.83;155.02;;;;;;;13.28;100.00;99791.44;302645;32;4391;-75
2023/05/15 00:09:00;;;;;;;352.57;153.93;;;;;;;13.29;100.00;99785.25;303540;32;1237;-75
2023/05/15 00:09:11;;;;;;;347.40;150.73;;;;;;;13.29;100.00;99779.97;299958;32;4663;-74
2023/05/15 00:09:21;;;;;;;348.08;152.65;;;;;;;13.28;100.00;99792.28;300242;32;5590;-75
2023/05/15 00:09:32;;;;;;;348.73;151.13;;;;;;;13.29;100.00;99787.88;300073;32;6239;-75
2023/05/15 00:09:42;;;;;;;346.93;150.10;;;;;;;13.27;100.00;99779.22;301825;32;1511;-75
2023/05/15 00:09:52;;;;;;;346.57;148.17;;;;;;;13.28;100.00;99786.16;299694;32;6570;-75
2023/05/15 00:10:03;;;;;;;346.73;150.63;;;;;;;13.28;100.00;99789.66;295150;33;6913;-75
2023/05/15 00:10:13;;;;;;;348.00;152.80;;;;;;;13.28;100.00;99780.91;293780;33;1444;-75
2023/05/15 00:10:24;;;;;;;350.03;154.43;;;;;;;13.27;100.00;99780.06;296695;33;5962;-74
2023/05/15 00:10:34;;;;;;;350.60;153.33;;;;;;;13.28;100.00;99788.78;294781;33;3324;-74
2023/05/15 00:10:45;;;;;;;352.30;152.60;;;;;;;13.28;100.00;99791.44;293195;33;943;-74
2023/05/15 00:10:55;;;;;;;352.77;152.57;;;;;;;13.29;100.00;99779.97;290883;33;5267;-74
2023/05/15 00:11:05;;;;;;;354.33;153.00;;;;;;;13.28;100.00;99783.53;289240;33;5830;-75
2023/05/15 00:11:16;;;;;;;351.83;149.57;;;;;;;13.29;100.00;99787.88;289139;34;1691;-75
2023/05/15 00:11:26;;;;;;;349.25;148.05;;;;;;;13.28;100.00;99784.38;285228;34;1566;-74
2023/05/15 00:11:37;;;;;;;348.93;149.00;;;;;;;13.28;100.00;99786.16;281148;34;7932;-74
2023/05/15 00:11:47;;;;;;;349.08;150.32;;;;;;;13.29;100.00;99783.47;279452;34;8583;-74
2023/05/15 00:11:58;;;;;;;349.87;151.30;;;;;;;13.30;100.00;99784.31;280846;35;1353;-74
2023/05/15 00:12:08;;;;;;;349.75;151.55;;;;;;;13.27;100.00;99774.81;281164;34;10160;-76
2023/05/15 00:13:57;;;;;;;337.32;139.86;;;;;;;13.30;100.00;99779.06;2498130;27;20464;-74
2023/05/15 00:14:07;;;;;;;343.07;146.93;;;;;;;13.29;100.00;99777.34;351500;28;1350;-74
2023/05/15 00:14:18;;;;;;;344.90;148.82;;;;;;;13.30;100.00;99785.16;348815;28;1306;-74
2023/05/15 00:14:28;;;;;;;344.60;148.37;;;;;;;13.29;100.00;99774.72;348693;28;1611;-74
2023/05/15 00:14:39;;;;;;;345.13;147.33;;;;;;;13.28;100.00;99791.44;350164;28;1272;-74
2023/05/15 00:14:49;;;;;;;342.50;145.63;;;;;;;13.30;100.00;99779.91;348627;28;1843;-74
2023/05/15 00:14:59;;;;;;;343.40;147.17;;;;;;;13.28;100.00;99770.41;349004;28;733;-74
2023/05/15 00:15:10;;;;;;;342.23;146.57;;;;;;;13.29;100.00;99772.09;348795;28;1292;-74
2023/05/15 00:15:20;;;;;;;343.90;149.73;;;;;;;13.29;100.00;99772.94;350020;28;1318;-75
2023/05/15 00:15:31;;;;;;;344.42;150.90;;;;;;;13.30;100.00;99773.81;351724;28;800;-75
2023/05/15 00:15:41;;;;;;;347.40;152.80;;;;;;;13.30;100.00;99789.56;348988;28;934;-74
2023/05/15 00:15:51;;;;;;;346.50;150.90;;;;;;;13.29;100.00;99777.34;349486;28;830;-74
2023/05/15 00:16:02;;;;;;;347.77;151.80;;;;;;;13.28;100.00;99775.66;348928;28;1226;-74
2023/05/15 00:16:12;;;;;;;347.53;152.00;;;;;;;13.28;100.00;99775.66;348908;28;953;-74
2023/05/15 00:16:23;;;;;;;347.60;151.75;;;;;;;13.30;100.00;99784.31;348692;28;1411;-74
2023/05/15 00:16:33;;;;;;;348.63;150.53;;;;;;;13.28;100.00;99775.66;350146;28;1067;-74
2023/05/15 00:16:44;;;;;;;348.45;149.88;;;;;;;13.28;100.00;99773.88;350095;28;1373;-74
2023/05/15 00:16:54;;;;;;;348.27;149.87;;;;;;;13.27;100.00;99768.69;350278;28;1376;-74
2023/05/15 00:17:05;;;;;;;349.63;150.07;;;;;;;13.28;100.00;99773.88;348852;28;864;-74
2023/05/15 00:17:15;;;;;;;350.88;149.60;;;;;;;13.27;100.00;99774.81;348769;28;1601;-74
2023/05/15 00:17:26;;;;;;;350.93;149.47;;;;;;;13.29;100.00;99777.34;348046;28;3410;-74
2023/05/15 00:17:36;;;;;;;349.43;150.97;;;;;;;13.30;100.00;99776.44;347951;28;3674;-76
2023/05/15 00:17:46;;;;;;;348.83;150.73;;;;;;;13.29;100.00;99777.34;346587;28;2764;-75
2023/05/15 00:17:57;;;;;;;350.27;151.73;;;;;;;13.27;100.00;99773.94;347087;28;2390;-74
2023/05/15 00:18:08;;;;;;;347.90;149.50;;;;;;;13.28;100.00;99775.66;345745;28;1547;-74
2023/05/15 00:18:19;;;;;;;344.75;148.25;;;;;;;13.28;100.00;99775.66;345144;28;1188;-74
2023/05/15 00:18:29;;;;;;;342.65;147.02;;;;;;;13.28;100.00;99775.66;344850;28;825;-76
2023/05/15 00:18:40;;;;;;;341.33;145.37;;;;;;;13.29;100.00;99777.34;344684;28;1382;-74
2023/05/15 00:18:50;;;;;;;344.75;145.05;;;;;;;13.27;100.00;99769.53;345287;28;1280;-75
2023/05/15 00:19:01;;;;;;;348.67;146.67;;;;;;;13.28;100.00;99773.88;346077;28;1348;-74
2023/05/15 00:19:11;;;;;;;349.10;146.90;;;;;;;13.28;100.00;99786.16;348767;28;867;-74
2023/05/15 00:19:22;;;;;;;348.63;148.55;;;;;;;13.28;100.00;99775.66;350192;28;1282;-74
2023/05/15 00:19:32;;;;;;;349.93;150.17;;;;;;;13.28;100.00;99773.03;348450;28;1255;-74
2023/05/15 00:19:43;;;;;;;349.63;148.38;;;;;;;13.29;100.00;99777.34;343372;28;1307;-75
2023/05/15 00:19:57;;;;;;;349.40;149.17;;;;;;;13.30;100.00;99771.16;346382;28;1788;-75
2023/05/15 00:20:09;;;;;;;348.98;149.80;;;;;;;13.30;100.00;99777.28;347309;28;940;-74
2023/05/15 00:20:19;;;;;;;346.08;148.25;;;;;;;13.29;100.00;99766.84;348946;28;1627;-74
2023/05/15 00:20:30;;;;;;;348.88;147.23;;;;;;;13.29;100.00;99772.09;348837;28;1258;-74
2023/05/15 00:20:40;;;;;;;346.67;147.00;;;;;;;13.28;100.00;99765.13;343985;28;1357;-74
2023/05/15 00:20:52;;;;;;;347.88;146.98;;;;;;;13.27;100.00;99769.53;342889;28;1433;-74
2023/05/15 00:21:02;;;;;;;344.52;146.98;;;;;;;13.28;100.00;99770.41;343310;28;1752;-74
2023/05/15 00:21:13;;;;;;;346.35;148.48;;;;;;;13.24;100.00;99768.84;342130;28;1259;-74
2023/05/15 00:21:23;;;;;;;349.57;149.63;;;;;;;13.23;100.00;99769.78;341412;28;1597;-74
2023/05/15 00:21:33;;;;;;;355.20;150.63;;;;;;;13.22;100.00;99760.19;342714;28;1819;-74
2023/05/15 00:21:44;;;;;;;355.70;149.73;;;;;;;13.24;100.00;99768.84;339416;29;955;-74
2023/05/15 00:21:55;;;;;;;351.38;149.18;;;;;;;13.23;100.00;99768.00;337917;29;1346;-75
2023/05/15 00:22:05;;;;;;;345.93;149.20;;;;;;;13.23;100.00;99764.50;340473;28;1401;-75
2023/05/15 00:22:15;;;;;;;344.60;148.75;;;;;;;13.23;100.00;99761.88;337832;29;1348;-75
2023/05/15 00:22:26;;;;;;;345.33;149.03;;;;;;;13.23;100.00;99773.25;341497;28;1208;-74
2023/05/15 00:22:36;;;;;;;347.25;149.70;;;;;;;13.24;100.00;99774.94;341196;28;1693;-74
2023/05/15 00:22:46;;;;;;;346.93;150.70;;;;;;;13.23;100.00;99765.38;338634;29;1954;-75
2023/05/15 00:22:57;;;;;;;349.03;151.97;;;;;;;13.23;100.00;99761.88;337872;29;1321;-74
2023/05/15 00:23:08;;;;;;;350.10;152.00;;;;;;;13.22;100.00;99768.06;338923;29;1211;-75
2023/05/15 00:23:18;;;;;;;349.80;148.30;;;;;;;13.22;100.00;99765.44;338379;29;1677;-75
2023/05/15 00:23:29;;;;;;;351.37;148.13;;;;;;;13.22;100.00;99760.19;339550;29;813;-74
2023/05/15 00:23:39;;;;;;;353.37;148.27;;;;;;;13.24;100.00;99766.22;337641;29;1350;-74
2023/05/15 00:23:52;;;;;;;356.20;150.68;;;;;;;13.24;100.00;99763.59;337728;29;1657;-74
2023/05/15 00:24:03;;;;;;;347.95;146.43;;;;;;;13.24;100.00;99760.97;335363;28;2027;-75
2023/05/15 00:24:13;;;;;;;347.70;146.53;;;;;;;13.24;100.00;99758.34;336132;29;1497;-75
2023/05/15 00:24:24;;;;;;;344.63;145.93;;;;;;;13.25;100.00;99760.03;338914;28;1801;-75
2023/05/15 00:24:34;;;;;;;345.42;147.48;;;;;;;13.25;100.00;99765.28;338246;29;1635;-75
2023/05/15 00:24:44;;;;;;;343.60;145.13;;;;;;;13.26;100.00;99767.84;331624;29;1418;-75
2023/05/15 00:24:55;;;;;;;346.00;144.73;;;;;;;13.25;100.00;99765.28;332063;29;2139;-75
2023/05/15 00:25:06;;;;;;;345.33;143.37;;;;;;;13.25;100.00;99762.66;332095;29;1817;-75
2023/05/15 00:25:18;;;;;;;344.23;143.38;;;;;;;13.25;100.00;99762.66;333153;29;1465;-75
2023/05/15 00:25:28;;;;;;;339.15;142.55;;;;;;;13.25;100.00;99767.91;333005;29;933;-75
2023/05/15 00:25:39;;;;;;;338.63;140.68;;;;;;;13.23;100.00;99761.88;329064;29;1740;-75
2023/05/15 00:25:49;;;;;;;341.70;141.80;;;;;;;13.25;100.00;99770.53;328394;29;1880;-75
2023/05/15 00:25:59;;;;;;;344.63;141.38;;;;;;;13.25;100.00;99762.66;326809;30;1492;-75
2023/05/15 00:26:12;;;;;;;344.83;142.77;;;;;;;13.25;100.00;99765.28;324873;30;2033;-75
2023/05/15 00:26:23;;;;;;;339.73;141.55;;;;;;;13.25;100.00;99770.53;324817;30;2530;-75
2023/05/15 00:26:33;;;;;;;339.27;141.60;;;;;;;13.24;100.00;99760.97;326598;30;3402;-74
2023/05/15 00:26:43;;;;;;;343.33;144.27;;;;;;;13.24;100.00;99769.69;321837;30;3234;-74
2023/05/15 00:26:54;;;;;;;348.87;147.70;;;;;;;13.25;100.00;99768.78;322448;30;5348;-75
2023/05/15 00:27:04;;;;;;;351.00;149.38;;;;;;;13.26;100.00;99767.00;321357;30;2545;-74
2023/05/15 00:27:15;;;;;;;351.23;149.10;;;;;;;13.23;100.00;99762.75;324237;30;2772;-74
2023/05/15 00:27:26;;;;;;;349.95;147.05;;;;;;;13.25;100.00;99768.78;321607;30;1895;-74
2023/05/15 00:27:37;;;;;;;349.67;146.07;;;;;;;13.27;100.00;99768.69;322119;30;1564;-75
2023/05/15 00:27:47;;;;;;;347.63;144.80;;;;;;;13.25;100.00;99768.78;321491;30;2036;-74
2023/05/15 00:27:57;;;;;;;345.93;144.27;;;;;;;13.25;100.00;99766.13;320920;30;1328;-74
2023/05/15 00:28:08;;;;;;;344.52;144.20;;;;;;;13.24;100.00;99774.09;321061;30;3175;-74
2023/05/15 00:28:18;;;;;;;345.77;144.63;;;;;;;13.24;100.00;99774.09;318096;30;2896;-74
2023/05/15 00:28:29;;;;;;;346.27;146.13;;;;;;;13.24;100.00;99768.84;317649;31;1308;-75
2023/05/15 00:28:39;;;;;;;347.23;147.33;;;;;;;13.22;100.00;99773.31;316416;30;3277;-74
2023/05/15 00:28:50;;;;;;;347.45;146.65;;;;;;;13.21;100.00;99780.34;316364;31;3262;-74
2023/05/15 00:29:00;;;;;;;348.90;144.40;;;;;;;13.22;100.00;99781.22;317354;30;1715;-74
2023/05/15 00:29:11;;;;;;;349.63;143.80;;;;;;;13.21;100.00;99774.25;316869;31;3328;-74
2023/05/15 00:29:22;;;;;;;349.10;143.27;;;;;;;13.20;100.00;99780.44;314136;31;3240;-74
2023/05/15 00:29:32;;;;;;;344.35;144.55;;;;;;;13.21;100.00;99774.25;314646;31;2502;-74
2023/05/15 00:29:43;;;;;;;345.90;144.35;;;;;;;13.20;100.00;99777.81;316270;31;842;-75
2023/05/15 00:29:53;;;;;;;347.30;146.17;;;;;;;13.21;100.00;99782.97;314619;31;2208;-75
2023/05/15 00:30:04;;;;;;;348.30;145.82;;;;;;;13.20;100.00;99777.81;311980;31;2906;-75
2023/05/15 00:30:15;;;;;;;345.55;145.77;;;;;;;13.19;100.00;99779.59;312055;31;1284;-74
2023/05/15 00:30:27;;;;;;;344.80;144.83;;;;;;;13.19;100.00;99778.72;311659;31;3786;-75
2023/05/15 00:30:37;;;;;;;344.48;145.20;;;;;;;13.21;100.00;99780.34;311619;31;4083;-74
2023/05/15 00:30:47;;;;;;;344.27;144.00;;;;;;;13.18;100.00;99775.25;310440;31;5117;-75
2023/05/15 00:30:58;;;;;;;348.57;145.07;;;;;;;13.20;100.00;99780.44;307449;32;1002;-75
2023/05/15 00:31:08;;;;;;;351.10;145.57;;;;;;;13.20;100.00;99783.06;305511;32;4732;-75
2023/05/15 00:31:19;;;;;;;353.27;145.73;;;;;;;13.19;100.00;99786.63;303747;32;4580;-76
2023/05/15 00:31:29;;;;;;;348.15;145.25;;;;;;;13.20;100.00;99786.53;303254;32;786;-75
2023/05/15 00:31:40;;;;;;;342.47;144.40;;;;;;;13.21;100.00;99785.63;304946;32;4525;-75
2023/05/15 00:31:50;;;;;;;339.90;145.27;;;;;;;13.22;100.00;99781.22;304799;32;3544;-75
2023/05/15 00:32:00;;;;;;;341.88;144.73;;;;;;;13.21;100.00;99777.72;303157;32;1379;-75
2023/05/15 00:32:11;;;;;;;344.70;146.00;;;;;;;13.20;100.00;99769.91;304377;32;3235;-75
2023/05/15 00:32:21;;;;;;;344.20;145.68;;;;;;;13.21;100.00;99776.88;298061;32;4273;-74
2023/05/15 00:32:32;;;;;;;344.67;145.07;;;;;;;13.21;100.00;99779.50;294916;33;5498;-74
2023/05/15 00:32:42;;;;;;;342.98;143.82;;;;;;;13.21;100.00;99779.50;295032;33;1432;-75
2023/05/15 00:32:52;;;;;;;344.03;145.07;;;;;;;13.21;100.00;99782.13;290957;33;6105;-75
2023/05/15 00:33:03;;;;;;;342.20;146.60;;;;;;;13.22;100.00;99778.59;289508;33;6549;-75
2023/05/15 00:33:13;;;;;;;344.77;148.48;;;;;;;13.21;100.00;99780.34;290100;34;1557;-75
2023/05/15 00:33:23;;;;;;;345.17;147.40;;;;;;;13.21;100.00;99774.25;290604;33;6658;-75
2023/05/15 00:33:34;;;;;;;349.05;148.15;;;;;;;13.21;100.00;99780.34;289746;33;6050;-75
2023/05/15 00:33:44;;;;;;;351.23;148.33;;;;;;;13.21;100.00;99779.50;287393;34;916;-74
2023/05/15 00:33:55;;;;;;;350.52;147.90;;;;;;;13.23;100.00;99777.66;286853;34;6170;-74
2023/05/15 00:34:05;;;;;;;349.23;147.93;;;;;;;13.23;100.00;99777.66;285406;34;4960;-75
2023/05/15 00:34:15;;;;;;;348.30;147.47;;;;;;;13.23;100.00;99780.28;286263;34;1363;-75
2023/05/15 00:34:26;;;;;;;346.88;150.30;;;;;;;13.22;100.00;99770.69;284565;34;5359;-75
2023/05/15 00:34:36;;;;;;;346.17;150.27;;;;;;;13.22;100.00;99775.94;280965;34;5901;-75
2023/05/15 00:34:47;;;;;;;345.10;149.27;;;;;;;13.22;100.00;99779.44;279509;34;7445;-74
2023/05/15 00:34:57;;;;;;;343.93;146.70;;;;;;;13.23;100.00;99780.28;279720;35;1356;-75
2023/05/15 00:35:08;;;;;;;346.35;146.25;;;;;;;13.22;100.00;99779.44;275898;35;8437;-74
2023/05/15 00:35:18;;;;;;;347.90;147.27;;;;;;;13.23;100.00;99782.91;273495;35;10259;-74
2023/05/15 00:35:28;;;;;;;349.13;145.63;;;;;;;13.21;100.00;99777.72;275198;35;1292;-74
2023/05/15 00:35:39;;;;;;;347.33;145.33;;;;;;;13.21;100.00;99779.50;275765;35;9259;-73
2023/05/15 00:35:50;;;;;;;346.65;144.38;;;;;;;13.20;100.00;99783.91;272491;35;8300;-74
2023/05/15 00:36:01;;;;;;;347.35;147.57;;;;;;;13.21;100.00;99772.47;272044;36;3807;-74
2023/05/15 00:37:53;;;;;;;335.16;137.39;;;;;;;13.18;100.00;99775.25;2500287;27;20257;-75
2023/05/15 00:38:03;;;;;;;343.80;142.80;;;;;;;13.16;100.00;99779.72;354439;27;885;-75
2023/05/15 00:38:14;;;;;;;350.08;142.75;;;;;;;13.16;100.00;99782.34;350191;28;1206;-74
2023/05/15 00:38:24;;;;;;;352.27;146.03;;;;;;;13.14;100.00;99772.81;350208;28;1255;-74
2023/05/15 00:38:34;;;;;;;351.10;145.70;;;;;;;13.14;100.00;99773.66;350122;28;1015;-74
2023/05/15 00:38:45;;;;;;;350.13;146.35;;;;;;;13.14;100.00;99778.06;348912;28;900;-75
2023/05/15 00:38:56;;;;;;;352.77;146.83;;;;;;;13.15;100.00;99779.78;346206;28;773;-74
2023/05/15 00:39:06;;;;;;;352.65;148.07;;;;;;;13.10;100.00;99761.59;348819;28;836;-74
2023/05/15 00:39:17;;;;;;;348.73;146.90;;;;;;;13.14;100.00;99772.81;348565;28;1196;-75
2023/05/15 00:39:27;;;;;;;349.73;147.03;;;;;;;13.14;100.00;99775.44;346079;28;1190;-75
2023/05/15 00:39:38;;;;;;;352.88;146.65;;;;;;;13.12;100.00;99775.50;346164;28;931;-75
2023/05/15 00:39:48;;;;;;;353.10;147.23;;;;;;;13.12;100.00;99774.66;350139;28;1354;-75
2023/05/15 00:39:58;;;;;;;351.77;145.95;;;;;;;13.11;100.00;99773.81;348739;28;1340;-75
2023/05/15 00:40:11;;;;;;;347.43;145.53;;;;;;;13.13;100.00;99771.97;347285;28;1232;-75
2023/05/15 00:40:22;;;;;;;349.30;145.73;;;;;;;13.13;100.00;99766.72;348748;28;1467;-75
2023/05/15 00:40:33;;;;;;;350.00;144.88;;;;;;;13.13;100.00;99768.47;347467;28;918;-74
2023/05/15 00:40:43;;;;;;;351.17;146.02;;;;;;;13.14;100.00;99773.66;347485;28;1226;-75
2023/05/15 00:40:54;;;;;;;351.37;146.40;;;;;;;13.14;100.00;99773.66;346033;28;1204;-75
2023/05/15 00:41:05;;;;;;;353.15;149.07;;;;;;;13.14;100.00;99770.19;349002;28;1224;-75
2023/05/15 00:41:16;;;;;;;353.45;147.98;;;;;;;13.14;100.00;99772.81;348215;28;998;-75
2023/05/15 00:41:27;;;;;;;352.45;147.60;;;;;;;13.14;100.00;99771.03;344695;28;1464;-75
2023/05/15 00:41:37;;;;;;;351.23;147.20;;;;;;;13.15;100.00;99771.88;343402;28;1336;-75
2023/05/15 00:41:48;;;;;;;351.65;147.65;;;;;;;13.15;100.00;99774.50;343169;28;1347;-75
2023/05/15 00:42:00;;;;;;;350.03;145.00;;;;;;;13.14;100.00;99765.78;343656;28;1589;-75
2023/05/15 00:42:10;;;;;;;347.55;143.00;;;;;;;13.12;100.00;99764.16;340738;28;1618;-74
2023/05/15 00:42:22;;;;;;;344.73;142.27;;;;;;;13.12;100.00;99770.25;343306;28;1214;-75
2023/05/15 00:42:33;;;;;;;345.90;143.38;;;;;;;13.11;100.00;99767.72;343911;28;864;-75
2023/05/15 00:42:43;;;;;;;347.40;145.10;;;;;;;13.12;100.00;99769.41;340065;28;1218;-75
2023/05/15 00:42:54;;;;;;;351.05;145.60;;;;;;;13.11;100.00;99767.72;339420;29;1301;-75
2023/05/15 00:43:04;;;;;;;352.03;145.97;;;;;;;13.12;100.00;99772.03;342132;28;884;-75
2023/05/15 00:43:15;;;;;;;350.35;144.50;;;;;;;13.12;100.00;99765.00;341418;28;1339;-75
2023/05/15 00:43:25;;;;;;;348.27;144.93;;;;;;;13.13;100.00;99774.59;340670;29;1327;-75
2023/05/15 00:43:37;;;;;;;349.45;144.93;;;;;;;13.13;100.00;99771.09;342434;28;1834;-75
2023/05/15 00:43:49;;;;;;;350.20;145.00;;;;;;;13.11;100.00;99762.44;343988;28;1102;-75
2023/05/15 00:43:59;;;;;;;346.35;142.45;;;;;;;13.13;100.00;99765.84;345268;28;990;-75
2023/05/15 00:44:10;;;;;;;344.83;143.07;;;;;;;13.15;100.00;99769.25;346119;28;821;-75
2023/05/15 00:44:20;;;;;;;346.40;144.25;;;;;;;13.14;100.00;99768.41;344835;28;1215;-74
2023/05/15 00:44:31;;;;;;;349.87;145.47;;;;;;;13.13;100.00;99765.84;345388;28;1251;-74
2023/05/15 00:44:42;;;;;;;353.90;147.02;;;;;;;13.14;100.00;99762.31;343366;28;1292;-74
2023/05/15 00:44:53;;;;;;;353.17;148.10;;;;;;;13.14;100.00;99770.19;344759;28;1410;-74
2023/05/15 00:45:04;;;;;;;352.85;145.30;;;;;;;13.16;100.00;99771.00;342964;28;2048;-74
2023/05/15 00:45:14;;;;;;;353.92;146.18;;;;;;;13.15;100.00;99762.22;338340;28;3341;-74
2023/05/15 00:45:25;;;;;;;352.17;148.33;;;;;;;13.17;100.00;99767.44;342977;28;2408;-74
2023/05/15 00:45:35;;;;;;;356.33;151.05;;;;;;;13.17;100.00;99770.91;339276;29;967;-75
2023/05/15 00:45:46;;;;;;;357.10;149.07;;;;;;;13.15;100.00;99758.75;339999;28;4007;-75
2023/05/15 00:45:56;;;;;;;355.25;147.50;;;;;;;13.17;100.00;99767.44;340666;29;1161;-75
2023/05/15 00:46:07;;;;;;;349.87;145.93;;;;;;;13.15;100.00;99759.59;341706;28;1481;-75
2023/05/15 00:46:18;;;;;;;346.25;144.75;;;;;;;13.15;100.00;99759.59;341823;28;1448;-75
2023/05/15 00:46:30;;;;;;;348.67;146.18;;;;;;;13.17;100.00;99767.44;339788;28;1711;-76
2023/05/15 00:46:40;;;;;;;347.33;146.52;;;;;;;13.15;100.00;99769.25;340531;29;1137;-74
2023/05/15 00:46:51;;;;;;;348.50;147.40;;;;;;;13.14;100.00;99759.66;339259;28;1915;-76
2023/05/15 00:47:02;;;;;;;349.27;148.10;;;;;;;13.14;100.00;99765.78;339232;29;1338;-75
2023/05/15 00:47:12;;;;;;;350.10;146.65;;;;;;;13.13;100.00;99761.44;339510;29;1005;-75
2023/05/15 00:47:23;;;;;;;348.48;145.00;;;;;;;13.14;100.00;99751.78;339371;29;1245;-75
2023/05/15 00:47:33;;;;;;;348.30;143.17;;;;;;;13.14;100.00;99765.78;341009;28;1215;-75
2023/05/15 00:47:43;;;;;;;349.47;145.37;;;;;;;13.15;100.00;99758.75;340798;28;1643;-75
2023/05/15 00:47:54;;;;;;;352.23;145.93;;;;;;;13.14;100.00;99759.66;336858;29;794;-75
2023/05/15 00:48:05;;;;;;;353.17;146.30;;;;;;;13.12;100.00;99753.63;340736;28;1754;-75
2023/05/15 00:48:15;;;;;;;354.70;147.20;;;;;;;13.12;100.00;99756.28;339957;28;1771;-75
2023/05/15 00:48:26;;;;;;;352.85;146.60;;;;;;;13.12;100.00;99751.00;340796;29;750;-75
2023/05/15 00:48:37;;;;;;;352.38;146.63;;;;;;;13.13;100.00;99750.09;344178;28;1552;-75
2023/05/15 00:48:49;;;;;;;349.30;145.53;;;;;;;13.12;100.00;99754.50;343756;28;2155;-75
2023/05/15 00:48:59;;;;;;;347.85;146.95;;;;;;;13.14;100.00;99751.78;341007;28;1573;-75
2023/05/15 00:49:12;;;;;;;344.27;145.05;;;;;;;13.15;100.00;99748.25;344674;28;1232;-75
2023/05/15 00:49:22;;;;;;;344.55;143.80;;;;;;;13.14;100.00;99741.28;343434;28;873;-75
2023/05/15 00:49:34;;;;;;;345.53;143.80;;;;;;;13.16;100.00;99760.47;342599;28;1310;-75
2023/05/15 00:49:44;;;;;;;342.55;141.68;;;;;;;13.15;100.00;99748.25;342140;28;1905;-74
2023/05/15 00:49:55;;;;;;;341.63;142.40;;;;;;;13.15;100.00;99748.25;340754;29;882;-74
2023/05/15 00:50:07;;;;;;;345.27;144.60;;;;;;;13.14;100.00;99747.38;342495;28;2659;-74
2023/05/15 00:50:18;;;;;;;350.90;146.02;;;;;;;13.14;100.00;99744.75;340563;28;2617;-74
2023/05/15 00:50:28;;;;;;;350.40;145.82;;;;;;;13.13;100.00;99750.94;333205;29;2226;-74
2023/05/15 00:50:40;;;;;;;350.63;145.97;;;;;;;13.15;100.00;99753.50;332893;29;1315;-74
2023/05/15 00:50:50;;;;;;;352.08;147.73;;;;;;;13.14;100.00;99746.53;331470;29;2394;-74
2023/05/15 00:51:01;;;;;;;354.17;148.37;;;;;;;13.15;100.00;99748.25;331690;29;2678;-75
2023/05/15 00:51:11;;;;;;;354.25;148.25;;;;;;;13.13;100.00;99744.84;331567;29;1356;-75
2023/05/15 00:51:22;;;;;;;352.17;146.93;;;;;;;13.12;100.00;99743.13;331537;29;1812;-76
2023/05/15 00:51:32;;;;;;;352.55;145.43;;;;;;;13.13;100.00;99745.69;331959;29;1257;-75
2023/05/15 00:51:42;;;;;;;352.80;147.53;;;;;;;13.14;100.00;99746.53;330005;29;2554;-74